Maggie Valley, NC (28751)

3:55 AM EDT on June 29, 2017 (GMT -0400)
Cook-mnts Valley Vista | | Change Station

Elev 3878 ft 35.52 °N, 83.11 °W | Updated 15 seconds ago

Mostly Cloudy
Mostly Cloudy
60.2 °F
Feels Like 60.2 °F
N
3.0
Wind Variable Wind from West

Today
High -- | Low -- °F
--% Chance of Precip.
Yesterday
High -- | Low -- °F
Precip. -- in
Pressure 30.23 in
Visibility 7.0 miles
Clouds Overcast 2700 ft
Dew Point 54 °F
Humidity 81%
Rainfall 0.00 in
Snow Depth Not available.
6:19 AM 8:51 PM
Waxing Crescent, 33% visible
METAR K1A5 290735Z AUTO 00000KT 7SM OVC027 14/13 A3023 RMK AO2 T01360128
Pressure 30.23 in
Visibility 7.0 miles
Clouds Overcast 2700 ft
Dew Point 54 °F
Humidity 81%
Rainfall 0.00 in
Snow Depth Not available.
6:19 AM 8:51 PM
Waxing Crescent, 33% visible
METAR K1A5 290735Z AUTO 00000KT 7SM OVC027 14/13 A3023 RMK AO2 T01360128

Get Severe Weather Alerts

Thanks for signing up!

Be on the lookout for a verification email in your inbox.

You'll start receiving the daily forecast at 6 AM.

×

10-Day Weather Forecast

Almanac

Astronomy

Jun. 29, 2017 Rise Set
Actual Time
Civil Twilight
Nautical Twilight
Astronomical Twilight
Moon
Length of Visible Light
Length of Day
Tomorrow will be .
, % of the Moon is Illuminated

Today's Extremes

State Highs State Lows

Community

WunderPhotos

Category 6

Welcome to Category 6. This is the collective home for Weather Underground's featured writeups by Dr. Jeff Masters (right), Bob Henson (left), Chris Burt, and other regular contributors.

Nearby

Air Quality

  Air Quality AQ Index Pollutant
Not available.

Snow Depth

Station Depth Elevation

Earthquake Activity

City Distance Mag. Time & Date
Minimum magnitude displayed is 2.5.

Coastal Water Temperatures

Place Temperature

Stations

Nearby Weather Stations

Station Location Temp. Windchill Dew Point Humidity Wind Precip. Elev Updated Type
                   

Watches & Warnings

There are currently no watches in effect.